Time;durP1;ratioP1;P1;durP2;ratioP2;P2;SDS_P1;SDS_P2;PMS_P1;PMS_P2;Temp;Humidity;BMP_temperature;BMP_pressure;BME280_temperature;BME280_humidity;BME280_pressure;Samples;Min_cycle;Max_cycle;Signal;HPM_P1;HPM_P2
2022/12/15 00:40:57;;;;;;;7.03;6.10;;;19.60;45.90;;;;;;5060452;28;43456;-58
2022/12/15 00:43:29;;;;;;;;;;;19.60;46.00;;;;;;5064778;28;43563;-58
2022/12/15 00:48:43;;;;;;;6.43;5.82;;;19.60;46.10;;;;;;5062566;28;43441;-58
2022/12/15 00:51:12;;;;;;;6.55;5.85;;;19.50;46.00;;;;;;5064542;28;43390;-58
2022/12/15 01:21:23;;;;;;;4.43;4.03;;;19.40;46.20;;;;;;5063835;28;43505;-58
2022/12/15 01:23:52;;;;;;;4.30;3.90;;;19.40;46.20;;;;;;5062582;28;43460;-58
2022/12/15 01:26:20;;;;;;;4.55;4.03;;;19.40;46.20;;;;;;5063347;28;43461;-58
2022/12/15 01:28:47;;;;;;;4.05;3.65;;;19.40;46.20;;;;;;5053574;28;44937;-58
2022/12/15 01:31:15;;;;;;;4.10;3.70;;;19.30;46.20;;;;;;5063019;28;43758;-58
2022/12/15 01:33:42;;;;;;;3.90;3.60;;;19.30;46.20;;;;;;5063633;28;43372;-58
2022/12/15 01:36:10;;;;;;;4.03;3.65;;;19.30;46.20;;;;;;5063624;28;43634;-58
2022/12/15 01:38:38;;;;;;;4.18;3.75;;;19.30;46.30;;;;;;5062475;28;44726;-58
2022/12/15 01:41:08;;;;;;;3.50;3.20;;;19.20;46.20;;;;;;5063493;28;43747;-58
2022/12/15 01:43:40;;;;;;;3.90;3.60;;;19.20;46.20;;;;;;5061933;28;43419;-58
2022/12/15 01:46:07;;;;;;;3.58;3.28;;;19.20;46.20;;;;;;5063373;28;43453;-58
2022/12/15 01:49:13;;;;;;;3.53;3.22;;;19.20;46.30;;;;;;5061842;28;43943;-58
2022/12/15 01:51:46;;;;;;;3.50;3.20;;;19.20;46.30;;;;;;5061489;28;43786;-58
2022/12/15 01:54:25;;;;;;;3.13;2.83;;;19.20;46.30;;;;;;5062435;28;43361;-58
2022/12/15 01:56:58;;;;;;;3.13;2.83;;;19.20;46.30;;;;;;5063567;28;43438;-58
2022/12/15 01:59:53;;;;;;;3.28;2.72;;;19.10;46.30;;;;;;5060032;28;44734;-58
2022/12/15 02:02:24;;;;;;;3.22;2.92;;;19.10;46.30;;;;;;5059781;28;43542;-58
2022/12/15 02:04:55;;;;;;;3.13;2.83;;;19.10;46.40;;;;;;5062400;28;43453;-58
2022/12/15 02:07:23;;;;;;;2.60;2.40;;;19.10;46.40;;;;;;5062384;28;43403;-58
2022/12/15 02:09:53;;;;;;;3.45;3.10;;;19.10;46.40;;;;;;5062719;28;44709;-58
2022/12/15 02:12:33;;;;;;;2.85;2.65;;;19.10;46.40;;;;;;5062378;28;43654;-58
2022/12/15 02:15:41;;;;;;;2.75;2.55;;;19.00;46.30;;;;;;5063124;28;43424;-58
2022/12/15 02:18:26;;;;;;;2.70;2.50;;;19.10;46.40;;;;;;5042588;28;43430;-58
2022/12/15 02:21:14;;;;;;;2.92;2.72;;;19.00;46.30;;;;;;5062506;28;44029;-58
2022/12/15 02:23:59;;;;;;;3.38;2.80;;;19.00;46.30;;;;;;5062497;28;44134;-58
2022/12/15 02:27:00;;;;;;;3.10;2.80;;;18.90;46.30;;;;;;5062419;28;43433;-58
2022/12/15 02:29:51;;;;;;;3.00;2.72;;;18.90;46.30;;;;;;5062336;28;43466;-58
2022/12/15 02:32:30;;;;;;;3.10;2.60;;;18.90;46.30;;;;;;5062341;28;43872;-58
2022/12/15 02:35:30;;;;;;;2.63;2.42;;;18.90;46.30;;;;;;5061248;28;43516;-58
2022/12/15 02:37:57;;;;;;;3.30;2.60;;;18.90;46.30;;;;;;5062814;28;43510;-58
2022/12/15 02:40:25;;;;;;;2.88;2.58;;;18.90;46.30;;;;;;5061894;28;43524;-58
2022/12/15 02:42:56;;;;;;;2.60;2.40;;;18.80;46.20;;;;;;5055959;28;43746;-58
2022/12/15 02:45:56;;;;;;;2.55;2.35;;;18.80;46.30;;;;;;5062385;28;44051;-58
2022/12/15 02:48:58;;;;;;;3.47;2.15;;;18.80;46.20;;;;;;5061868;28;43958;-58
2022/12/15 02:51:34;;;;;;;2.78;2.30;;;18.80;46.30;;;;;;5056845;28;43488;-58
2022/12/15 02:54:26;;;;;;;2.55;2.35;;;18.80;46.40;;;;;;5061489;28;43872;-58
2022/12/15 02:57:16;;;;;;;2.30;2.10;;;18.80;46.40;;;;;;5031941;28;43392;-58
2022/12/15 02:59:56;;;;;;;2.40;2.20;;;18.70;46.40;;;;;;5062414;28;43413;-58
2022/12/15 03:02:28;;;;;;;2.33;2.08;;;18.70;46.50;;;;;;5061143;28;43521;-58
2022/12/15 03:04:57;;;;;;;2.30;2.10;;;18.70;46.50;;;;;;5061870;28;44953;-58
2022/12/15 03:07:26;;;;;;;2.17;1.98;;;18.70;46.60;;;;;;5062295;28;43695;-58
2022/12/15 03:09:59;;;;;;;2.10;1.95;;;18.70;46.70;;;;;;5061161;28;43393;-58
2022/12/15 03:12:27;;;;;;;2.92;2.25;;;18.60;46.60;;;;;;5061095;28;43394;-58
2022/12/15 03:14:54;;;;;;;2.03;1.83;;;18.70;46.70;;;;;;5061136;28;43880;-58
2022/12/15 03:17:22;;;;;;;2.22;2.00;;;18.70;46.70;;;;;;5051094;28;43479;-58
2022/12/15 03:19:49;;;;;;;2.15;1.95;;;18.60;46.60;;;;;;5057455;28;43452;-58
2022/12/15 03:22:17;;;;;;;2.08;1.70;;;18.60;46.60;;;;;;5060940;28;43894;-58
2022/12/15 03:24:45;;;;;;;2.75;2.25;;;18.60;46.70;;;;;;5052130;28;44336;-58
2022/12/15 03:27:12;;;;;;;2.00;1.80;;;18.60;46.60;;;;;;5061766;28;43528;-58
2022/12/15 03:29:39;;;;;;;2.35;2.00;;;18.60;46.70;;;;;;5060598;28;43370;-58
2022/12/15 03:32:07;;;;;;;3.13;2.10;;;18.60;46.70;;;;;;5060664;28;43441;-58
2022/12/15 03:34:35;;;;;;;2.53;2.30;;;18.60;46.70;;;;;;5061388;28;44684;-58
2022/12/15 03:37:02;;;;;;;2.50;2.20;;;18.60;46.70;;;;;;5061590;28;43478;-58
2022/12/15 03:39:29;;;;;;;2.83;2.17;;;18.60;46.80;;;;;;5061711;28;43451;-58
2022/12/15 03:41:57;;;;;;;2.92;2.22;;;18.50;46.70;;;;;;5060508;28;43463;-58
2022/12/15 03:44:24;;;;;;;2.53;2.00;;;18.60;46.80;;;;;;5061010;28;43800;-58
2022/12/15 03:46:52;;;;;;;2.28;2.08;;;18.50;46.80;;;;;;5061340;28;43653;-58
2022/12/15 03:49:26;;;;;;;2.60;2.22;;;18.50;46.80;;;;;;5060783;28;43535;-58
2022/12/15 03:51:53;;;;;;;2.30;2.10;;;18.50;46.80;;;;;;5060944;28;43489;-58
2022/12/15 03:54:21;;;;;;;2.83;2.10;;;18.50;46.80;;;;;;5061069;28;44821;-58
2022/12/15 03:56:48;;;;;;;2.83;2.15;;;18.50;46.80;;;;;;5061589;28;43687;-58
2022/12/15 03:59:16;;;;;;;2.20;2.00;;;18.50;46.80;;;;;;5058385;28;43533;-58
2022/12/15 04:01:47;;;;;;;2.75;2.00;;;18.50;46.90;;;;;;5061462;28;43472;-58
2022/12/15 04:04:15;;;;;;;2.25;2.05;;;18.50;46.90;;;;;;5060184;28;44794;-58
2022/12/15 04:06:43;;;;;;;2.25;2.00;;;18.40;46.90;;;;;;5061020;28;43662;-58
2022/12/15 04:09:10;;;;;;;2.28;1.88;;;18.40;46.90;;;;;;5060220;28;43490;-58
2022/12/15 04:11:38;;;;;;;2.58;2.08;;;18.40;46.90;;;;;;5060183;28;43719;-58
2022/12/15 04:14:05;;;;;;;3.63;2.33;;;18.40;46.90;;;;;;5060882;28;43801;-58
2022/12/15 04:16:33;;;;;;;3.30;2.60;;;18.30;47.60;;;;;;5060025;28;43466;-58
2022/12/15 04:21:46;;;;;;;3.88;2.47;;;18.30;46.90;;;;;;5061028;28;43533;-58
2022/12/15 05:33:31;;;;;;;3.10;2.30;;;17.90;47.30;;;;;;5063616;28;44185;-58
2022/12/15 05:36:00;;;;;;;2.67;2.17;;;17.90;47.30;;;;;;5062534;28;43472;-58
2022/12/15 05:38:27;;;;;;;3.15;2.08;;;17.90;47.30;;;;;;5063471;28;43603;-58
2022/12/15 05:40:59;;;;;;;2.88;1.90;;;17.90;47.30;;;;;;5063906;28;44999;-58
2022/12/15 05:43:27;;;;;;;2.55;2.10;;;17.90;47.30;;;;;;5030330;28;43487;-58
2022/12/15 05:45:55;;;;;;;2.72;1.88;;;17.90;47.30;;;;;;5050868;28;43422;-58
2022/12/15 05:48:23;;;;;;;2.83;2.00;;;17.90;47.30;;;;;;5063200;28;43640;-58
2022/12/15 05:50:50;;;;;;;3.17;2.20;;;17.80;47.30;;;;;;5062628;28;45034;-58
2022/12/15 05:53:17;;;;;;;2.17;1.70;;;17.80;47.30;;;;;;5063623;28;43411;-58
2022/12/15 05:55:45;;;;;;;2.53;2.08;;;17.80;47.30;;;;;;5062599;28;43407;-58
2022/12/15 05:58:12;;;;;;;2.83;2.00;;;17.80;47.30;;;;;;5062598;28;43418;-59
2022/12/15 06:00:40;;;;;;;2.38;1.80;;;17.80;47.30;;;;;;5063376;28;44693;-58
2022/12/15 06:03:07;;;;;;;2.38;1.85;;;17.80;47.30;;;;;;5046791;28;43793;-58
2022/12/15 06:05:35;;;;;;;2.13;1.80;;;17.70;47.20;;;;;;5048637;28;43412;-58
2022/12/15 06:08:02;;;;;;;1.58;1.45;;;17.80;47.30;;;;;;5049339;28;43481;-58
2022/12/15 06:10:30;;;;;;;2.13;1.60;;;17.80;47.30;;;;;;5051893;28;43792;-58
2022/12/15 06:12:57;;;;;;;2.20;1.42;;;17.80;47.30;;;;;;5040047;28;43487;-58
2022/12/15 06:15:25;;;;;;;2.25;1.67;;;17.70;47.20;;;;;;5035484;28;43391;-58
2022/12/15 06:17:54;;;;;;;3.03;1.67;;;17.80;47.20;;;;;;5046464;28;43485;-58
2022/12/15 06:20:22;;;;;;;1.83;1.63;;;17.70;47.20;;;;;;5048246;28;43815;-58
2022/12/15 06:22:49;;;;;;;1.80;1.60;;;17.70;47.30;;;;;;5050063;28;43708;-58
2022/12/15 06:25:17;;;;;;;1.70;1.40;;;17.70;47.30;;;;;;5035922;28;43422;-58
2022/12/15 06:27:44;;;;;;;2.72;1.65;;;17.70;47.30;;;;;;5046548;28;43570;-58
2022/12/15 06:30:12;;;;;;;2.03;1.40;;;17.70;47.30;;;;;;5047484;28;44985;-58
2022/12/15 06:32:39;;;;;;;1.77;1.60;;;17.70;48.00;;;;;;5035743;28;43443;-58
2022/12/15 06:35:07;;;;;;;1.85;1.40;;;17.70;47.30;;;;;;5033217;28;43483;-58
2022/12/15 06:37:35;;;;;;;2.30;1.70;;;17.70;47.30;;;;;;5048875;28;43486;-58
2022/12/15 06:40:05;;;;;;;1.75;1.38;;;17.70;47.30;;;;;;5043495;28;44724;-58
2022/12/15 06:42:32;;;;;;;3.55;1.60;;;17.70;47.30;;;;;;5031851;28;43471;-58
2022/12/15 06:44:59;;;;;;;1.40;1.30;;;17.70;47.30;;;;;;5032780;28;43496;-58
2022/12/15 06:47:27;;;;;;;1.73;1.52;;;17.70;47.90;;;;;;5050082;28;43439;-59
2022/12/15 06:49:54;;;;;;;1.65;1.50;;;17.60;47.20;;;;;;5043394;28;43887;-58
2022/12/15 06:52:22;;;;;;;1.85;1.40;;;17.60;47.20;;;;;;5030964;28;43527;-58
2022/12/15 06:54:49;;;;;;;2.00;1.50;;;17.70;47.20;;;;;;5030434;28;43478;-58
2022/12/15 06:57:17;;;;;;;2.78;1.75;;;17.60;47.20;;;;;;5054386;28;43502;-58
2022/12/15 06:59:44;;;;;;;1.88;1.42;;;17.60;47.20;;;;;;5035943;28;43791;-58
2022/12/15 07:02:18;;;;;;;3.30;2.13;;;17.60;47.20;;;;;;5033431;28;43813;-58
2022/12/15 07:04:54;;;;;;;2.42;2.10;;;17.60;47.30;;;;;;5026426;28;43374;-58
2022/12/15 07:07:22;;;;;;;1.98;1.80;;;17.60;47.30;;;;;;5042695;28;43454;-58
2022/12/15 07:09:49;;;;;;;2.20;1.92;;;17.60;47.90;;;;;;5045513;28;43865;-58
2022/12/15 07:12:17;;;;;;;2.97;2.13;;;17.60;47.30;;;;;;5040171;28;43718;-58
2022/12/15 07:14:44;;;;;;;2.10;1.90;;;17.50;47.20;;;;;;5026150;28;43430;-58
2022/12/15 07:17:19;;;;;;;2.67;2.05;;;17.50;47.30;;;;;;5045518;28;43514;-58
2022/12/15 07:19:46;;;;;;;3.20;2.10;;;17.60;47.40;;;;;;5038186;28;44686;-58
2022/12/15 07:22:14;;;;;;;3.13;2.17;;;17.50;47.30;;;;;;5038397;28;43519;-58
2022/12/15 07:24:42;;;;;;;3.03;2.20;;;17.50;47.30;;;;;;5036220;28;43434;-58
2022/12/15 07:27:09;;;;;;;2.30;2.10;;;17.60;47.30;;;;;;5056402;28;43457;-58
2022/12/15 07:29:37;;;;;;;2.38;2.17;;;17.50;47.30;;;;;;5036919;28;45002;-58
2022/12/15 07:32:05;;;;;;;3.08;2.30;;;17.50;47.50;;;;;;5037577;28;44152;-58
2022/12/15 07:34:32;;;;;;;4.13;2.50;;;17.50;47.30;;;;;;5036854;28;43524;-58
2022/12/15 07:37:00;;;;;;;2.90;2.20;;;17.50;47.30;;;;;;5044970;28;43485;-58
2022/12/15 07:39:28;;;;;;;2.60;2.40;;;17.40;47.30;;;;;;5039720;28;45125;-58
2022/12/15 07:41:55;;;;;;;4.45;2.90;;;17.40;47.30;;;;;;5036923;28;43704;-58
2022/12/15 07:44:23;;;;;;;3.58;2.78;;;17.40;47.30;;;;;;5038858;28;43486;-58
2022/12/15 07:46:51;;;;;;;3.53;2.72;;;17.40;47.30;;;;;;5048864;28;43506;-58
2022/12/15 07:49:19;;;;;;;3.53;3.13;;;17.40;47.30;;;;;;5032213;28;44150;-58
2022/12/15 07:51:47;;;;;;;3.95;2.78;;;17.40;47.30;;;;;;5028224;28;44154;-58
2022/12/15 07:54:14;;;;;;;3.78;2.75;;;17.40;47.30;;;;;;5037171;28;43466;-58
2022/12/15 07:56:42;;;;;;;3.33;3.03;;;17.40;47.30;;;;;;5044428;28;43714;-58
2022/12/15 07:59:09;;;;;;;3.42;3.10;;;17.40;48.00;;;;;;5032518;28;44696;-58
2022/12/15 08:01:37;;;;;;;3.63;2.90;;;17.40;47.30;;;;;;5034720;28;43664;-58
2022/12/15 08:04:05;;;;;;;5.63;3.35;;;17.30;47.20;;;;;;5052626;28;43447;-58
2022/12/15 08:06:33;;;;;;;3.47;2.85;;;17.30;47.20;;;;;;5030187;28;43511;-58
2022/12/15 08:09:00;;;;;;;4.82;3.28;;;17.30;47.30;;;;;;5023313;28;44910;-58
2022/12/15 08:11:33;;;;;;;3.63;3.17;;;17.30;47.40;;;;;;5050169;28;43645;-58
2022/12/15 08:14:01;;;;;;;4.97;3.35;;;17.30;47.30;;;;;;5043794;28;43443;-58
2022/12/15 08:16:33;;;;;;;3.70;3.20;;;17.30;47.20;;;;;;5034987;28;43364;-58
2022/12/15 08:19:02;;;;;;;6.20;3.42;;;17.30;47.30;;;;;;5023658;28;45003;-58
2022/12/15 08:21:30;;;;;;;6.50;3.35;;;17.30;47.40;;;;;;5052169;28;43407;-60
2022/12/15 08:23:59;;;;;;;9.05;3.63;;;17.30;47.50;;;;;;5037365;28;43435;-58
2022/12/15 08:26:27;;;;;;;4.80;3.28;;;17.30;47.50;;;;;;5037905;28;43503;-59
2022/12/15 08:29:02;;;;;;;3.47;2.80;;;17.30;47.60;;;;;;5052766;28;43785;-58
2022/12/15 08:31:50;;;;;;;5.05;2.80;;;17.30;47.60;;;;;;5044801;28;44010;-58
2022/12/15 08:34:18;;;;;;;4.60;3.05;;;17.40;47.50;;;;;;5030457;28;43456;-58
2022/12/15 08:36:46;;;;;;;3.90;3.05;;;17.50;47.40;;;;;;5028442;28;43581;-58
2022/12/15 08:39:13;;;;;;;3.92;2.97;;;17.60;47.30;;;;;;5056249;28;44709;-59
2022/12/15 08:41:41;;;;;;;3.75;2.80;;;17.70;47.20;;;;;;5042881;28;43415;-58
2022/12/15 08:44:08;;;;;;;3.78;2.92;;;17.80;47.10;;;;;;5039132;28;43448;-58
2022/12/15 08:46:36;;;;;;;4.70;2.88;;;17.90;47.00;;;;;;5027930;28;43437;-58
2022/12/15 08:49:03;;;;;;;4.40;2.88;;;17.90;47.50;;;;;;5051898;28;44662;-58
2022/12/15 08:51:32;;;;;;;3.70;3.00;;;18.00;46.90;;;;;;5039403;28;44804;-58
2022/12/15 08:54:00;;;;;;;4.35;2.78;;;18.10;46.80;;;;;;5027668;28;43475;-58
2022/12/15 08:56:28;;;;;;;3.72;2.45;;;18.10;46.70;;;;;;5025291;28;43506;-58
2022/12/15 08:58:59;;;;;;;3.10;2.53;;;18.20;46.50;;;;;;5037184;28;44699;-58
2022/12/15 09:01:28;;;;;;;2.97;2.60;;;18.30;46.50;;;;;;5032992;28;43426;-58
2022/12/15 09:03:57;;;;;;;2.85;2.40;;;18.40;46.40;;;;;;5041370;28;43479;-58
2022/12/15 09:06:26;;;;;;;3.63;2.53;;;18.50;46.40;;;;;;5055144;28;43637;-58
2022/12/15 09:09:03;;;;;;;3.63;2.30;;;18.50;46.30;;;;;;5049090;28;44664;-58
2022/12/15 09:11:31;;;;;;;4.85;2.10;;;18.60;46.20;;;;;;5032752;28;43430;-60
2022/12/15 09:13:59;;;;;;;2.20;2.00;;;18.60;46.80;;;;;;5033752;28;43452;-59
2022/12/15 09:16:26;;;;;;;3.78;1.95;;;18.70;46.10;;;;;;5033278;28;43509;-59
2022/12/15 09:18:57;;;;;;;3.55;2.03;;;18.80;46.20;;;;;;5043153;28;44035;-58
2022/12/15 09:21:27;;;;;;;3.80;2.20;;;18.90;46.00;;;;;;5030457;28;43973;-59
2022/12/15 09:23:59;;;;;;;3.70;2.03;;;19.00;45.90;;;;;;5042684;28;43496;-58
2022/12/15 09:26:30;;;;;;;2.65;2.10;;;19.10;45.60;;;;;;5053015;28;43502;-58
2022/12/15 09:28:57;;;;;;;2.47;2.20;;;19.10;45.60;;;;;;5041093;28;44693;-58
2022/12/15 09:31:28;;;;;;;2.13;1.80;;;19.10;45.40;;;;;;5043861;28;43432;-58
2022/12/15 09:33:57;;;;;;;2.10;1.80;;;19.20;45.50;;;;;;5055589;28;43452;-60
2022/12/15 09:36:26;;;;;;;2.78;1.90;;;19.30;45.60;;;;;;5050892;28;43560;-59
2022/12/15 09:38:54;;;;;;;2.80;2.00;;;19.30;45.50;;;;;;5049463;28;44680;-59
2022/12/15 09:41:27;;;;;;;2.45;1.95;;;19.40;45.50;;;;;;5026453;28;43691;-59
2022/12/15 09:44:04;;;;;;;2.50;1.60;;;19.50;45.50;;;;;;5055001;28;43523;-59
2022/12/15 09:46:50;;;;;;;3.42;1.80;;;19.50;45.50;;;;;;5044691;28;43528;-59
2022/12/15 09:49:26;;;;;;;2.35;1.90;;;19.60;45.80;;;;;;5029646;28;43983;-60
2022/12/15 09:52:10;;;;;;;2.88;1.77;;;19.70;45.70;;;;;;5034780;28;43450;-60
2022/12/15 09:54:40;;;;;;;3.08;1.73;;;19.70;45.40;;;;;;5049304;28;43504;-61
2022/12/15 09:57:30;;;;;;;3.20;2.10;;;19.80;45.60;;;;;;5045008;28;43888;-60
2022/12/15 10:00:20;;;;;;;2.67;1.88;;;19.90;45.60;;;;;;5049570;28;43790;-60
2022/12/15 10:03:16;;;;;;;3.15;1.70;;;20.00;45.40;;;;;;5054351;28;43358;-61
2022/12/15 10:06:13;;;;;;;2.35;1.65;;;20.10;45.60;;;;;;5041203;28;43404;-59
2022/12/15 10:08:56;;;;;;;2.85;1.58;;;20.20;45.30;;;;;;5026227;28;43685;-59
2022/12/15 10:11:43;;;;;;;2.90;1.65;;;20.30;45.10;;;;;;5051830;28;43818;-59
2022/12/15 10:14:40;;;;;;;2.67;1.60;;;20.30;44.80;;;;;;5043651;28;43445;-60
2022/12/15 10:17:20;;;;;;;3.20;1.65;;;20.40;44.80;;;;;;5030401;28;43451;-60
2022/12/15 10:19:58;;;;;;;2.83;2.10;;;20.40;44.70;;;;;;5038314;28;43491;-60
2022/12/15 10:22:31;;;;;;;2.92;1.75;;;20.30;44.80;;;;;;5042841;28;44045;-60
2022/12/15 10:25:13;;;;;;;2.60;1.65;;;20.30;44.60;;;;;;5037331;28;43418;-59
2022/12/15 10:28:15;;;;;;;2.42;1.60;;;20.30;45.00;;;;;;5039021;28;43435;-59
2022/12/15 10:30:57;;;;;;;2.80;1.70;;;20.30;44.80;;;;;;5044351;28;43425;-59
2022/12/15 10:33:30;;;;;;;2.65;1.63;;;20.20;45.00;;;;;;5051650;28;44984;-60
2022/12/15 10:35:58;;;;;;;2.90;1.70;;;20.20;45.30;;;;;;5048594;28;43908;-60
2022/12/15 10:38:37;;;;;;;3.33;1.90;;;20.10;45.30;;;;;;5051879;28;43390;-60
2022/12/15 10:41:15;;;;;;;2.60;1.80;;;20.00;45.40;;;;;;5054212;28;43506;-60
2022/12/15 10:43:44;;;;;;;1.90;1.50;;;20.00;45.50;;;;;;5048398;28;44985;-60
2022/12/15 10:46:19;;;;;;;4.75;2.08;;;19.90;45.80;;;;;;5045910;28;43402;-59
2022/12/15 10:48:49;;;;;;;2.33;1.60;;;19.90;45.70;;;;;;5049586;28;43450;-59
2022/12/15 10:51:29;;;;;;;3.83;1.80;;;19.90;45.70;;;;;;5046236;28;43456;-60
2022/12/15 10:54:04;;;;;;;3.20;1.73;;;19.80;45.80;;;;;;5051376;28;44798;-59
2022/12/15 10:56:33;;;;;;;5.18;1.70;;;19.80;46.00;;;;;;5049349;28;43399;-59
2022/12/15 10:59:20;;;;;;;2.25;1.60;;;19.70;46.00;;;;;;5050126;28;43521;-60
2022/12/15 11:01:48;;;;;;;3.42;1.83;;;19.70;46.40;;;;;;5050051;28;43418;-59
2022/12/15 11:04:28;;;;;;;2.22;1.70;;;19.60;46.10;;;;;;5048391;28;44126;-60
2022/12/15 11:07:01;;;;;;;3.42;1.83;;;19.60;46.10;;;;;;5056275;28;43429;-60
2022/12/15 11:09:37;;;;;;;7.50;1.88;;;19.50;46.10;;;;;;5041475;28;43514;-60
2022/12/15 11:15:20;;;;;;;2.90;1.70;;;19.50;46.60;;;;;;5039292;28;43802;-60
2022/12/15 11:18:00;;;;;;;2.92;1.90;;;19.50;46.70;;;;;;5042405;28;43531;-59
2022/12/15 11:20:40;;;;;;;2.38;1.83;;;19.40;46.40;;;;;;5044493;28;43578;-59
2022/12/15 11:23:28;;;;;;;4.20;1.97;;;19.40;46.50;;;;;;5044555;28;43451;-59
2022/12/15 11:26:29;;;;;;;2.90;1.80;;;19.40;46.40;;;;;;5051426;28;43989;-59
2022/12/15 11:29:04;;;;;;;3.65;2.08;;;19.30;46.50;;;;;;5043661;28;44034;-59
2022/12/15 11:31:44;;;;;;;3.03;1.80;;;19.30;46.50;;;;;;5045139;28;43482;-60
2022/12/15 11:34:21;;;;;;;2.13;1.90;;;19.20;47.10;;;;;;5039930;28;43568;-60
2022/12/15 11:37:08;;;;;;;1.70;1.50;;;19.20;46.60;;;;;;5043772;28;43820;-59
2022/12/15 11:40:05;;;;;;;1.70;1.60;;;19.10;46.60;;;;;;5035602;28;43985;-60
2022/12/15 11:42:33;;;;;;;4.65;2.20;;;19.10;46.70;;;;;;4995636;28;44172;-60
2022/12/15 11:45:14;;;;;;;2.47;1.77;;;19.00;46.70;;;;;;5046396;28;43603;-59
2022/12/15 11:47:51;;;;;;;3.08;1.80;;;19.00;46.80;;;;;;5046602;28;44193;-60
2022/12/15 11:50:43;;;;;;;2.17;1.80;;;19.00;46.80;;;;;;5038992;28;43411;-59
2022/12/15 11:53:22;;;;;;;2.05;1.80;;;19.00;46.80;;;;;;5042353;28;43549;-59
2022/12/15 11:56:15;;;;;;;2.53;1.80;;;18.90;46.90;;;;;;5036497;28;43489;-59
2022/12/15 11:59:23;;;;;;;2.30;2.03;;;18.90;46.90;;;;;;5041419;28;43874;-59
2022/12/15 12:01:50;;;;;;;1.83;1.60;;;18.90;47.00;;;;;;5046862;28;43461;-59
2022/12/15 12:04:54;;;;;;;2.63;1.60;;;18.90;47.00;;;;;;5042655;28;43496;-59
2022/12/15 12:07:45;;;;;;;1.95;1.58;;;18.80;47.00;;;;;;5045668;28;43451;-59
2022/12/15 12:10:35;;;;;;;2.05;1.80;;;18.80;47.00;;;;;;5033861;28;43788;-60
2022/12/15 12:13:35;;;;;;;2.00;1.80;;;18.80;47.00;;;;;;5036962;28;43402;-59
2022/12/15 12:16:24;;;;;;;3.60;1.80;;;18.80;47.30;;;;;;5016626;28;43596;-59
2022/12/15 12:18:56;;;;;;;2.33;1.60;;;18.80;47.20;;;;;;5023038;28;43370;-60
2022/12/15 12:21:28;;;;;;;1.77;1.63;;;18.80;47.10;;;;;;5051848;28;43796;-59
2022/12/15 12:24:15;;;;;;;2.20;1.83;;;18.70;47.10;;;;;;5043464;28;43681;-59
2022/12/15 12:26:48;;;;;;;1.85;1.65;;;18.70;47.10;;;;;;5026336;28;43521;-59
2022/12/15 12:29:34;;;;;;;2.20;1.67;;;18.70;47.10;;;;;;5031463;28;43494;-60
2022/12/15 12:32:30;;;;;;;1.90;1.63;;;18.80;47.20;;;;;;5042698;28;44045;-59
2022/12/15 12:35:03;;;;;;;2.05;1.60;;;18.70;47.20;;;;;;5034572;28;43497;-59
2022/12/15 12:38:02;;;;;;;2.67;1.90;;;18.70;47.20;;;;;;5030709;28;43493;-59
2022/12/15 12:40:40;;;;;;;3.97;1.92;;;18.70;47.30;;;;;;5045179;28;43412;-60
2022/12/15 12:43:10;;;;;;;1.85;1.60;;;18.70;47.40;;;;;;5043235;28;44156;-59
2022/12/15 12:45:59;;;;;;;2.03;1.77;;;18.60;47.50;;;;;;5024369;28;43941;-60
2022/12/15 12:48:32;;;;;;;2.75;1.63;;;18.60;47.40;;;;;;5047373;28;43421;-59
2022/12/15 12:51:09;;;;;;;1.83;1.67;;;18.60;47.40;;;;;;5048023;28;43359;-60
2022/12/15 12:53:36;;;;;;;2.65;1.85;;;18.60;47.40;;;;;;5028462;28;44913;-60
2022/12/15 12:56:04;;;;;;;2.30;1.65;;;18.60;47.50;;;;;;5023238;28;43497;-60
2022/12/15 12:58:40;;;;;;;3.05;1.70;;;18.60;47.50;;;;;;5053588;28;43447;-59
2022/12/15 13:01:18;;;;;;;1.75;1.60;;;18.50;47.50;;;;;;5046998;28;43547;-60
2022/12/15 13:04:05;;;;;;;2.55;1.73;;;18.50;47.60;;;;;;5036752;28;44799;-60
2022/12/15 13:06:35;;;;;;;2.17;1.65;;;18.50;47.60;;;;;;5029764;28;43490;-60
2022/12/15 13:09:18;;;;;;;2.83;1.83;;;18.50;47.70;;;;;;5046716;28;43473;-60
2022/12/15 13:11:51;;;;;;;2.63;1.50;;;18.50;47.70;;;;;;5030549;28;43605;-59
2022/12/15 13:14:33;;;;;;;2.67;1.70;;;18.50;47.70;;;;;;5031032;28;43857;-60
2022/12/15 13:17:24;;;;;;;2.50;1.70;;;18.50;47.70;;;;;;5053699;28;43469;-60
2022/12/15 13:20:00;;;;;;;2.35;1.70;;;18.50;47.80;;;;;;5038241;28;43492;-60
2022/12/15 13:22:32;;;;;;;2.22;1.80;;;18.50;47.70;;;;;;5026250;28;43535;-60
2022/12/15 13:25:02;;;;;;;2.33;1.75;;;18.40;47.70;;;;;;5042740;28;44716;-59
2022/12/15 13:27:39;;;;;;;1.88;1.70;;;18.40;47.70;;;;;;5042739;28;43393;-60
2022/12/15 13:30:07;;;;;;;2.22;1.85;;;18.50;47.70;;;;;;5026741;28;43539;-59
2022/12/15 13:32:45;;;;;;;2.47;1.65;;;18.50;47.70;;;;;;5037433;28;43442;-60
2022/12/15 13:35:13;;;;;;;2.35;1.80;;;18.50;47.70;;;;;;5048934;28;44089;-60
2022/12/15 13:37:53;;;;;;;3.00;1.60;;;18.50;47.70;;;;;;5039639;28;43423;-60
2022/12/15 13:40:23;;;;;;;2.25;1.70;;;18.50;47.70;;;;;;5027066;28;43527;-60
2022/12/15 13:43:04;;;;;;;2.70;1.70;;;18.50;47.70;;;;;;5044255;28;43415;-60
2022/12/15 13:45:53;;;;;;;2.28;1.75;;;18.40;47.70;;;;;;5042339;28;43589;-60
2022/12/15 13:48:24;;;;;;;1.70;1.60;;;18.50;47.80;;;;;;5031380;28;43504;-60
2022/12/15 13:50:59;;;;;;;1.42;1.33;;;18.40;47.80;;;;;;5025574;28;43436;-60
2022/12/15 13:53:31;;;;;;;2.65;1.83;;;18.40;47.80;;;;;;5044249;28;43495;-60
2022/12/15 13:56:11;;;;;;;1.67;1.40;;;18.40;47.80;;;;;;5042351;28;43812;-60
2022/12/15 13:58:43;;;;;;;1.30;1.20;;;18.40;47.80;;;;;;5035994;28;43517;-60
2022/12/15 14:01:26;;;;;;;2.13;1.70;;;18.40;47.90;;;;;;5051184;28;43439;-60
2022/12/15 14:04:20;;;;;;;1.85;1.55;;;18.50;48.00;;;;;;5046468;28;43460;-60
2022/12/15 14:06:49;;;;;;;1.67;1.58;;;18.50;47.80;;;;;;5049938;28;44044;-60
2022/12/15 14:09:49;;;;;;;1.55;1.40;;;18.60;47.80;;;;;;5045344;28;43484;-60
2022/12/15 14:12:16;;;;;;;1.95;1.50;;;18.60;47.70;;;;;;5045041;28;43545;-60
2022/12/15 14:14:48;;;;;;;3.25;1.38;;;18.70;47.70;;;;;;5053450;28;43518;-60
2022/12/15 14:17:18;;;;;;;2.35;1.50;;;18.70;47.70;;;;;;5047397;28;45330;-60
2022/12/15 14:19:48;;;;;;;1.60;1.50;;;18.80;47.70;;;;;;5046060;28;43498;-60
2022/12/15 14:22:27;;;;;;;2.55;1.70;;;18.80;47.70;;;;;;5051044;28;43497;-60
2022/12/15 14:25:12;;;;;;;2.47;1.38;;;18.80;47.70;;;;;;5043415;28;43550;-60
2022/12/15 14:27:39;;;;;;;2.50;1.60;;;18.80;47.70;;;;;;5043542;28;43627;-60
2022/12/15 14:30:32;;;;;;;2.53;1.45;;;18.80;47.70;;;;;;5048589;28;43439;-60
2022/12/15 14:33:10;;;;;;;1.95;1.50;;;18.80;47.80;;;;;;5049313;28;43608;-60
2022/12/15 14:35:47;;;;;;;2.47;1.70;;;18.80;47.80;;;;;;5052168;28;43481;-60
2022/12/15 14:38:42;;;;;;;3.55;1.65;;;18.80;47.80;;;;;;5037817;28;44044;-60
2022/12/15 14:41:19;;;;;;;1.35;1.25;;;18.80;47.80;;;;;;5049265;28;43419;-60
2022/12/15 14:43:48;;;;;;;1.40;1.20;;;18.80;47.90;;;;;;5048953;28;43541;-60
2022/12/15 14:46:36;;;;;;;2.90;1.60;;;18.80;47.80;;;;;;5048996;28;43508;-60
2022/12/15 14:49:07;;;;;;;2.20;1.50;;;18.80;47.80;;;;;;5052737;28;44978;-60
2022/12/15 14:51:45;;;;;;;1.60;1.50;;;18.80;47.80;;;;;;5048080;28;43584;-60
2022/12/15 14:54:34;;;;;;;1.83;1.40;;;18.80;47.70;;;;;;5050669;28;43411;-60
2022/12/15 14:57:14;;;;;;;1.38;1.27;;;18.80;47.80;;;;;;5046456;28;43530;-61
2022/12/15 14:59:44;;;;;;;1.73;1.63;;;18.80;47.70;;;;;;5036183;28;43784;-61
2022/12/15 15:02:18;;;;;;;1.55;1.25;;;18.80;47.70;;;;;;5046319;28;44026;-60
2022/12/15 15:05:06;;;;;;;1.67;1.38;;;18.90;47.80;;;;;;5049466;28;43494;-60
2022/12/15 15:07:37;;;;;;;3.13;1.80;;;18.90;47.80;;;;;;5042607;28;43625;-60
2022/12/15 15:10:22;;;;;;;2.45;1.70;;;18.90;47.90;;;;;;5041717;28;44182;-61
2022/12/15 15:12:51;;;;;;;2.00;1.55;;;18.90;47.90;;;;;;5024930;28;43458;-60
2022/12/15 15:15:24;;;;;;;5.50;1.90;;;19.00;47.90;;;;;;5047052;28;43427;-60
2022/12/15 15:17:56;;;;;;;4.72;1.70;;;18.90;47.90;;;;;;5042360;28;43989;-60
2022/12/15 15:20:31;;;;;;;8.25;1.80;;;18.90;47.80;;;;;;5033368;28;44954;-61
2022/12/15 15:23:14;;;;;;;2.47;1.50;;;18.90;47.80;;;;;;5022220;28;44839;-60
2022/12/15 15:25:49;;;;;;;2.72;1.55;;;18.90;47.80;;;;;;5047288;28;43442;-61
2022/12/15 15:28:17;;;;;;;4.80;1.50;;;18.90;47.70;;;;;;5043397;28;43522;-61
2022/12/15 15:31:05;;;;;;;4.32;1.77;;;18.90;47.80;;;;;;5041947;28;44196;-61
2022/12/15 15:33:33;;;;;;;1.83;1.50;;;19.00;47.70;;;;;;5040968;28;43473;-60
2022/12/15 15:36:03;;;;;;;3.10;1.60;;;19.10;47.70;;;;;;5049744;28;43538;-60
2022/12/15 15:38:32;;;;;;;3.45;1.67;;;19.10;47.60;;;;;;5048620;28;43643;-60
2022/12/15 15:41:13;;;;;;;4.28;1.60;;;19.20;47.50;;;;;;5044355;28;43990;-59
2022/12/15 15:43:41;;;;;;;3.22;1.60;;;19.30;47.60;;;;;;5049322;28;43435;-60
2022/12/15 15:46:18;;;;;;;3.97;1.80;;;19.30;47.50;;;;;;5045865;28;43441;-60
2022/12/15 15:48:55;;;;;;;3.90;1.80;;;19.40;47.50;;;;;;5049375;28;43401;-59
2022/12/15 15:51:27;;;;;;;7.65;2.17;;;19.30;47.40;;;;;;5044240;28;44029;-59